createdAt,value
2022-11-16T00:01:01.790Z,0.70
2022-11-16T00:03:29.356Z,0.57
2022-11-16T00:05:59.999Z,0.63
2022-11-16T00:08:27.488Z,0.70
2022-11-16T00:10:54.789Z,0.57
2022-11-16T00:13:22.205Z,0.60
2022-11-16T00:15:56.515Z,0.93
2022-11-16T00:18:24.423Z,0.50
2022-11-16T00:20:52.253Z,0.40
2022-11-16T00:23:19.645Z,0.40
2022-11-16T00:25:47.043Z,0.40
2022-11-16T00:28:14.396Z,0.30
2022-11-16T00:30:41.713Z,0.60
2022-11-16T00:33:09.489Z,0.60
2022-11-16T00:35:40.798Z,0.67
2022-11-16T00:38:08.223Z,0.70
2022-11-16T00:40:35.538Z,0.63
2022-11-16T00:43:02.805Z,0.57
2022-11-16T00:45:30.264Z,0.60
2022-11-16T00:48:00.452Z,0.60
2022-11-16T00:50:28.128Z,0.60
2022-11-16T00:52:55.454Z,0.50
2022-11-16T00:55:22.818Z,0.70
2022-11-16T00:57:50.305Z,0.60
2022-11-16T01:00:18.000Z,0.50
2022-11-16T01:02:45.329Z,0.40
2022-11-16T01:05:12.812Z,0.30
2022-11-16T01:07:40.851Z,0.40
2022-11-16T01:10:11.571Z,0.50
2022-11-16T01:12:40.598Z,0.40
2022-11-16T01:15:11.922Z,0.40
2022-11-16T01:17:41.579Z,0.50
2022-11-16T01:20:10.302Z,0.50
2022-11-16T01:22:37.907Z,0.40
2022-11-16T01:25:05.557Z,0.60
2022-11-16T01:27:34.553Z,0.30
2022-11-16T01:30:03.573Z,0.40
2022-11-16T01:32:32.567Z,0.40
2022-11-16T01:34:59.834Z,0.50
2022-11-16T01:37:27.547Z,0.50
2022-11-16T01:39:56.574Z,0.50
2022-11-16T01:42:29.534Z,0.57
2022-11-16T01:45:07.561Z,0.50
2022-11-16T01:47:36.576Z,0.63
2022-11-16T01:50:11.921Z,0.50
2022-11-16T01:52:41.808Z,0.47
2022-11-16T01:55:09.161Z,0.33
2022-11-16T01:57:38.807Z,0.40
2022-11-16T02:00:07.228Z,0.40
2022-11-16T02:02:34.531Z,0.40
2022-11-16T02:05:02.470Z,0.30
2022-11-16T02:08:11.178Z,0.30
2022-11-16T02:10:41.673Z,0.50
2022-11-16T02:13:09.035Z,0.43
2022-11-16T02:15:41.465Z,0.40
2022-11-16T02:18:11.461Z,0.40
2022-11-16T02:20:44.705Z,0.27
2022-11-16T02:23:30.550Z,0.40
2022-11-16T02:26:19.001Z,0.60
2022-11-16T02:29:04.890Z,0.50
2022-11-16T02:31:38.690Z,0.57
2022-11-16T02:34:08.600Z,0.60
2022-11-16T02:36:37.586Z,0.47
2022-11-16T02:39:08.255Z,0.60
2022-11-16T02:41:38.537Z,0.70
2022-11-16T02:44:09.764Z,0.90
2022-11-16T02:46:38.726Z,1.10
2022-11-16T02:49:09.068Z,1.30
2022-11-16T02:51:37.528Z,1.20
2022-11-16T02:54:13.193Z,2.00
2022-11-16T02:56:43.122Z,1.57
2022-11-16T02:59:14.150Z,1.73
2022-11-16T03:01:48.432Z,2.33
2022-11-16T03:04:18.508Z,2.00
2022-11-16T03:06:47.869Z,2.00
2022-11-16T03:09:24.127Z,2.00
2022-11-16T03:11:59.763Z,2.27
2022-11-16T03:14:39.430Z,2.20
2022-11-16T03:17:08.471Z,2.47
2022-11-16T03:19:42.085Z,2.50
2022-11-16T03:22:15.545Z,2.10
2022-11-16T03:24:43.136Z,2.20
2022-11-16T03:27:16.340Z,2.30
2022-11-16T03:29:48.846Z,2.60
2022-11-16T03:32:16.728Z,2.90
2022-11-16T03:34:48.304Z,2.70
2022-11-16T03:37:15.925Z,3.03
2022-11-16T03:39:43.839Z,2.90
2022-11-16T03:42:16.701Z,2.60
2022-11-16T03:44:44.959Z,2.47
2022-11-16T03:47:13.226Z,2.37
2022-11-16T03:49:44.533Z,2.17
2022-11-16T03:52:12.098Z,2.50
2022-11-16T03:54:39.402Z,2.03
2022-11-16T03:57:06.772Z,2.40
2022-11-16T03:59:34.584Z,2.17
2022-11-16T04:02:01.832Z,2.10
2022-11-16T04:04:47.589Z,2.40
2022-11-16T04:07:33.919Z,2.20
2022-11-16T04:10:23.357Z,2.70
2022-11-16T04:13:09.544Z,2.30
2022-11-16T04:15:55.626Z,2.47
2022-11-16T04:18:41.755Z,2.17
2022-11-16T04:21:51.677Z,1.97
2022-11-16T04:24:24.493Z,2.20
2022-11-16T04:27:15.774Z,2.00
2022-11-16T04:29:43.306Z,2.10
2022-11-16T04:32:29.916Z,2.13
2022-11-16T04:35:16.280Z,2.53
2022-11-16T04:37:49.221Z,2.13
2022-11-16T04:40:17.233Z,2.50
2022-11-16T04:42:44.676Z,2.70
2022-11-16T04:45:30.233Z,2.40
2022-11-16T04:47:57.536Z,2.23
2022-11-16T04:50:27.481Z,2.30
2022-11-16T04:52:54.744Z,2.47
2022-11-16T04:55:23.212Z,2.13
2022-11-16T04:57:50.538Z,2.53
2022-11-16T05:00:18.095Z,2.13
2022-11-16T05:02:46.087Z,1.90
2022-11-16T05:05:13.843Z,2.33
2022-11-16T05:07:41.349Z,1.90
2022-11-16T05:10:08.890Z,1.90
2022-11-16T05:12:36.218Z,2.17
2022-11-16T05:15:03.484Z,2.23
2022-11-16T05:17:30.994Z,2.00
2022-11-16T05:20:16.724Z,2.00
2022-11-16T05:22:44.074Z,1.67
2022-11-16T05:25:11.540Z,1.80
2022-11-16T05:27:39.039Z,1.23
2022-11-16T05:30:07.731Z,1.70
2022-11-16T05:32:35.217Z,1.20
2022-11-16T05:35:03.700Z,1.37
2022-11-16T05:37:32.647Z,1.70
2022-11-16T05:39:59.960Z,1.80
2022-11-16T05:42:27.324Z,2.10
2022-11-16T05:44:56.706Z,2.07
2022-11-16T05:47:24.066Z,2.10
2022-11-16T05:49:51.480Z,1.63
2022-11-16T05:52:18.988Z,2.20
2022-11-16T05:54:46.368Z,1.90
2022-11-16T05:57:13.636Z,2.17
2022-11-16T05:59:41.122Z,2.27
2022-11-16T06:02:08.408Z,2.07
2022-11-16T06:04:35.804Z,2.40
2022-11-16T06:07:03.178Z,2.40
2022-11-16T06:09:30.605Z,2.27
2022-11-16T06:11:57.945Z,2.10
2022-11-16T06:14:28.485Z,2.90
2022-11-16T06:16:55.805Z,1.63
2022-11-16T06:19:25.965Z,1.80
2022-11-16T06:21:55.666Z,1.90
2022-11-16T06:24:23.350Z,1.90
2022-11-16T06:26:50.851Z,2.10
2022-11-16T06:29:18.205Z,2.50
2022-11-16T06:31:45.590Z,1.90
2022-11-16T06:34:12.926Z,2.00
2022-11-16T06:36:40.322Z,2.30
2022-11-16T06:39:07.608Z,2.60
2022-11-16T06:41:40.188Z,2.10
2022-11-16T06:44:08.675Z,2.47
2022-11-16T06:46:35.969Z,2.37
2022-11-16T06:49:03.424Z,2.60
2022-11-16T06:51:30.759Z,2.33
2022-11-16T06:53:58.092Z,2.20
2022-11-16T06:56:25.477Z,2.30
2022-11-16T06:58:53.610Z,2.67
2022-11-16T07:01:21.224Z,2.90
2022-11-16T07:03:48.526Z,2.53
2022-11-16T07:06:16.003Z,2.50
2022-11-16T07:08:43.475Z,2.50
2022-11-16T07:11:11.328Z,2.57
2022-11-16T07:13:39.370Z,2.90
2022-11-16T07:16:07.775Z,2.43
2022-11-16T07:18:36.517Z,2.17
2022-11-16T07:21:12.211Z,2.47
2022-11-16T07:23:39.949Z,2.30
2022-11-16T07:26:08.234Z,2.10
2022-11-16T07:28:35.900Z,2.07
2022-11-16T07:31:07.627Z,2.97
2022-11-16T07:33:35.480Z,2.23
2022-11-16T07:36:03.361Z,2.37
2022-11-16T07:38:32.163Z,2.60
2022-11-16T07:41:03.549Z,2.77
2022-11-16T07:43:37.459Z,2.57
2022-11-16T07:46:45.468Z,2.00
2022-11-16T07:48:52.033Z,2.37
2022-11-16T07:51:20.166Z,2.97
2022-11-16T07:53:47.519Z,5.10
2022-11-16T07:56:14.825Z,2.90
2022-11-16T07:58:42.254Z,2.60
2022-11-16T08:01:14.715Z,2.40
2022-11-16T08:03:43.216Z,2.80
2022-11-16T08:06:15.057Z,2.20
2022-11-16T08:08:42.433Z,2.43
2022-11-16T08:11:10.870Z,2.10
2022-11-16T08:13:39.033Z,2.30
2022-11-16T08:16:10.556Z,2.67
2022-11-16T08:18:38.494Z,2.50
2022-11-16T08:21:06.755Z,2.70
2022-11-16T08:23:34.141Z,2.10
2022-11-16T08:26:01.442Z,2.00
2022-11-16T08:28:29.352Z,2.13
2022-11-16T08:30:57.283Z,3.00
2022-11-16T08:33:24.901Z,2.27
2022-11-16T08:35:53.302Z,2.63
2022-11-16T08:38:21.098Z,1.90
2022-11-16T08:40:50.901Z,2.17
2022-11-16T08:43:18.690Z,5.47
2022-11-16T08:45:49.805Z,2.20
2022-11-16T08:48:17.155Z,2.23
2022-11-16T08:51:10.445Z,2.50
2022-11-16T08:53:31.894Z,2.77
2022-11-16T08:56:06.293Z,2.70
2022-11-16T08:58:34.058Z,2.70
2022-11-16T09:01:08.021Z,2.77
2022-11-16T09:03:35.360Z,2.93
2022-11-16T09:06:02.680Z,3.10
2022-11-16T09:08:30.047Z,3.00
2022-11-16T09:10:57.428Z,2.80
2022-11-16T09:13:24.739Z,2.53
2022-11-16T09:15:58.727Z,3.27
2022-11-16T09:18:29.033Z,2.77
2022-11-16T09:20:56.542Z,3.30
2022-11-16T09:23:25.491Z,2.90
2022-11-16T09:25:53.589Z,3.60
2022-11-16T09:28:21.824Z,2.63
2022-11-16T09:30:50.101Z,3.30
2022-11-16T09:33:17.473Z,2.50
2022-11-16T09:35:45.042Z,2.90
2022-11-16T09:38:19.108Z,3.23
2022-11-16T09:40:51.516Z,2.90
2022-11-16T09:43:21.887Z,2.80
2022-11-16T09:45:49.302Z,3.00
2022-11-16T09:48:17.951Z,2.53
2022-11-16T09:50:58.263Z,2.43
2022-11-16T09:53:28.831Z,2.97
2022-11-16T09:56:08.655Z,2.50
2022-11-16T09:58:55.243Z,2.20
2022-11-16T10:01:48.676Z,1.67
2022-11-16T10:04:19.049Z,1.40
2022-11-16T10:07:23.009Z,1.23
2022-11-16T10:09:50.584Z,1.70
2022-11-16T10:12:22.538Z,1.40
2022-11-16T10:15:08.074Z,1.20
2022-11-16T10:17:41.314Z,1.20
2022-11-16T10:20:14.472Z,1.30
2022-11-16T10:23:17.728Z,0.97
2022-11-16T10:25:46.430Z,0.87
2022-11-16T10:28:22.930Z,0.70
2022-11-16T10:31:00.866Z,0.90
2022-11-16T10:33:35.732Z,0.80
2022-11-16T10:36:10.523Z,0.60
2022-11-16T10:38:38.161Z,0.43
2022-11-16T10:41:14.273Z,0.67
2022-11-16T10:43:42.914Z,0.60
2022-11-16T10:46:16.668Z,0.67
2022-11-16T10:48:55.119Z,0.90
2022-11-16T10:51:22.517Z,0.80
2022-11-16T10:53:49.870Z,0.90
2022-11-16T10:56:20.392Z,0.80
2022-11-16T10:58:53.912Z,0.90
2022-11-16T11:01:40.813Z,0.70
2022-11-16T11:04:16.106Z,0.80
2022-11-16T11:06:43.860Z,1.00
2022-11-16T11:09:25.605Z,1.00
2022-11-16T11:12:17.475Z,1.00
2022-11-16T11:15:00.124Z,0.97
2022-11-16T11:17:27.742Z,0.70
2022-11-16T11:20:00.012Z,0.77
2022-11-16T11:22:27.688Z,0.63
2022-11-16T11:24:55.070Z,0.53
2022-11-16T11:27:29.074Z,0.70
2022-11-16T11:29:58.888Z,0.80
2022-11-16T11:32:35.221Z,0.90
2022-11-16T11:35:03.920Z,0.57
2022-11-16T11:37:34.136Z,0.60
2022-11-16T11:40:07.559Z,0.97
2022-11-16T11:42:34.885Z,0.83
2022-11-16T11:45:05.280Z,0.80
2022-11-16T11:50:43.860Z,0.83
2022-11-16T11:53:11.181Z,0.80
2022-11-16T11:55:38.680Z,0.90
2022-11-16T11:58:07.140Z,0.83
2022-11-16T12:00:39.970Z,1.17
2022-11-16T12:03:14.305Z,0.80
2022-11-16T12:06:00.229Z,1.00
2022-11-16T12:08:30.305Z,0.80
2022-11-16T12:11:04.237Z,0.70
2022-11-16T12:13:49.598Z,0.93
2022-11-16T12:16:27.850Z,0.70
2022-11-16T12:18:58.018Z,0.77
2022-11-16T12:21:25.318Z,0.90
2022-11-16T12:24:01.085Z,0.93
2022-11-16T12:26:49.666Z,0.80
2022-11-16T12:29:17.065Z,0.80
2022-11-16T12:31:53.934Z,0.60
2022-11-16T12:34:36.529Z,0.60
2022-11-16T12:37:03.911Z,0.50
2022-11-16T12:39:49.881Z,0.50
2022-11-16T12:42:29.653Z,0.70
2022-11-16T12:45:13.546Z,0.47
2022-11-16T12:47:59.291Z,0.57
2022-11-16T12:50:41.588Z,0.60
2022-11-16T12:53:27.286Z,0.50
2022-11-16T12:56:03.594Z,0.47
2022-11-16T12:58:40.322Z,0.60
2022-11-16T13:01:13.856Z,0.43
2022-11-16T13:03:47.127Z,0.50
2022-11-16T13:06:18.525Z,0.60
2022-11-16T13:08:59.627Z,0.30
2022-11-16T13:11:28.858Z,0.60
2022-11-16T13:14:02.090Z,0.50
2022-11-16T13:16:30.026Z,0.40
2022-11-16T13:18:58.078Z,0.57
2022-11-16T13:21:31.427Z,0.35
2022-11-16T13:24:01.803Z,0.35
2022-11-16T13:26:47.890Z,0.43
2022-11-16T13:29:18.135Z,0.30
2022-11-16T13:31:52.402Z,0.32
2022-11-16T13:34:23.890Z,0.55
2022-11-16T13:36:51.408Z,0.40
2022-11-16T13:39:22.641Z,0.30
2022-11-16T13:41:51.269Z,0.40
2022-11-16T13:44:21.365Z,0.40
2022-11-16T13:46:56.296Z,0.37
2022-11-16T13:49:34.961Z,0.50
2022-11-16T13:52:21.992Z,0.40
2022-11-16T13:54:53.025Z,0.40
2022-11-16T13:57:28.561Z,0.50
2022-11-16T14:00:16.098Z,0.30
2022-11-16T14:02:43.579Z,0.30
2022-11-16T14:05:13.721Z,0.30
2022-11-16T14:07:47.284Z,0.30
2022-11-16T14:10:33.114Z,0.30
2022-11-16T14:13:00.975Z,0.30
2022-11-16T14:15:32.955Z,0.40
2022-11-16T14:18:11.942Z,0.30
2022-11-16T14:20:39.341Z,0.30
2022-11-16T14:23:25.250Z,0.40
2022-11-16T14:26:10.882Z,0.30
2022-11-16T14:28:53.856Z,0.30
2022-11-16T14:31:21.447Z,0.30
2022-11-16T14:33:56.080Z,0.30
2022-11-16T14:36:37.505Z,0.37
2022-11-16T14:39:23.783Z,0.40
2022-11-16T14:41:51.269Z,0.40
2022-11-16T14:44:19.784Z,0.43
2022-11-16T14:46:47.295Z,0.50
2022-11-16T14:49:16.202Z,0.60
2022-11-16T14:51:45.941Z,0.40
2022-11-16T14:54:39.049Z,0.30
2022-11-16T14:57:07.891Z,0.30
2022-11-16T14:59:35.322Z,0.50
2022-11-16T15:02:06.796Z,0.40
2022-11-16T15:04:34.138Z,0.60
2022-11-16T15:07:05.510Z,0.40
2022-11-16T15:09:37.190Z,0.40
2022-11-16T15:12:25.015Z,0.37
2022-11-16T15:14:53.626Z,0.40
2022-11-16T15:17:22.396Z,0.40
2022-11-16T15:20:00.226Z,0.40
2022-11-16T15:22:28.890Z,0.50
2022-11-16T15:24:57.654Z,0.40
2022-11-16T15:27:42.003Z,0.60
2022-11-16T15:30:16.842Z,0.70
2022-11-16T15:32:48.528Z,0.60
2022-11-16T15:35:20.688Z,0.50
2022-11-16T15:37:48.250Z,0.50
2022-11-16T15:40:15.825Z,0.50
2022-11-16T15:42:43.406Z,1.00
2022-11-16T15:45:16.379Z,0.90
2022-11-16T15:47:47.032Z,0.50
2022-11-16T15:50:23.182Z,0.63
2022-11-16T15:52:55.482Z,0.60
2022-11-16T15:55:35.188Z,0.77
2022-11-16T15:58:14.922Z,0.60
2022-11-16T16:00:42.487Z,0.40
2022-11-16T16:03:21.652Z,0.50
2022-11-16T16:05:49.507Z,0.80
2022-11-16T16:08:45.046Z,0.90
2022-11-16T16:11:12.344Z,1.00
2022-11-16T16:13:42.395Z,0.60
2022-11-16T16:16:28.267Z,0.90
2022-11-16T16:19:06.688Z,0.53
2022-11-16T16:21:42.147Z,0.87
2022-11-16T16:24:10.978Z,0.70
2022-11-16T16:26:41.071Z,0.60
2022-11-16T16:29:08.411Z,0.70
2022-11-16T16:31:35.743Z,1.27
2022-11-16T16:34:12.937Z,0.70
2022-11-16T16:36:40.257Z,0.60
2022-11-16T16:39:07.701Z,0.87
2022-11-16T16:41:34.964Z,0.80
2022-11-16T16:44:02.270Z,0.60
2022-11-16T16:46:29.587Z,0.53
2022-11-16T16:48:57.054Z,0.60
2022-11-16T16:51:24.355Z,0.60
2022-11-16T16:53:51.754Z,0.80
2022-11-16T16:56:20.043Z,0.90
2022-11-16T16:58:47.501Z,0.77
2022-11-16T17:01:15.133Z,0.57
2022-11-16T17:03:42.493Z,0.60
2022-11-16T17:06:09.845Z,0.70
2022-11-16T17:08:37.724Z,0.80
2022-11-16T17:11:05.163Z,0.80
2022-11-16T17:13:32.813Z,0.90
2022-11-16T17:16:00.289Z,0.80
2022-11-16T17:18:27.646Z,0.70
2022-11-16T17:20:55.031Z,1.90
2022-11-16T17:23:22.466Z,1.20
2022-11-16T17:25:49.817Z,2.00
2022-11-16T17:28:17.146Z,2.90
2022-11-16T17:30:44.455Z,2.80
2022-11-16T17:33:11.783Z,1.90
2022-11-16T17:35:39.113Z,2.73
2022-11-16T17:38:06.434Z,1.63
2022-11-16T17:40:33.907Z,1.40
2022-11-16T17:43:01.275Z,1.20
2022-11-16T17:45:28.685Z,1.33
2022-11-16T17:47:55.966Z,1.40
2022-11-16T17:50:23.277Z,1.30
2022-11-16T17:52:50.659Z,1.30
2022-11-16T17:55:17.981Z,1.27
2022-11-16T17:57:45.321Z,1.23
2022-11-16T18:00:13.105Z,1.20
2022-11-16T18:02:43.766Z,1.57
2022-11-16T18:05:11.214Z,1.37
2022-11-16T18:07:40.389Z,1.30
2022-11-16T18:10:08.131Z,1.10
2022-11-16T18:12:35.540Z,1.20
2022-11-16T18:15:29.622Z,3.17
2022-11-16T18:17:50.407Z,2.43
2022-11-16T18:20:17.879Z,1.87
2022-11-16T18:22:45.691Z,1.73
2022-11-16T18:25:13.304Z,1.40
2022-11-16T18:27:41.456Z,4.67
2022-11-16T18:30:09.334Z,6.30
2022-11-16T18:32:37.962Z,3.77
2022-11-16T18:35:10.157Z,3.13
2022-11-16T18:37:37.764Z,2.67
2022-11-16T18:40:05.496Z,1.63
2022-11-16T18:42:33.048Z,1.30
2022-11-16T18:45:00.721Z,1.00
2022-11-16T18:47:28.357Z,1.00
2022-11-16T18:49:56.047Z,1.10
2022-11-16T18:52:23.831Z,1.60
2022-11-16T18:54:51.480Z,1.97
2022-11-16T18:57:19.126Z,1.90
2022-11-16T18:59:46.870Z,1.97
2022-11-16T19:02:14.578Z,1.80
2022-11-16T19:04:43.026Z,1.30
2022-11-16T19:07:10.698Z,1.50
2022-11-16T19:09:38.384Z,2.27
2022-11-16T19:12:06.625Z,1.83
2022-11-16T19:14:34.421Z,1.43
2022-11-16T19:17:05.281Z,1.07
2022-11-16T19:19:32.986Z,1.30
2022-11-16T19:22:00.578Z,1.17
2022-11-16T19:24:28.844Z,1.10
2022-11-16T19:26:56.596Z,1.03
2022-11-16T19:29:27.032Z,1.10
2022-11-16T19:31:57.376Z,1.40
2022-11-16T19:34:30.411Z,1.60
2022-11-16T19:37:00.975Z,1.30
2022-11-16T19:39:28.718Z,1.33
2022-11-16T19:41:57.449Z,1.40
2022-11-16T19:44:25.237Z,1.63
2022-11-16T19:46:55.012Z,1.27
2022-11-16T19:49:22.641Z,1.50
2022-11-16T19:51:50.468Z,1.37
2022-11-16T19:54:21.326Z,1.10
2022-11-16T19:56:54.675Z,1.20
2022-11-16T19:59:22.899Z,1.60
2022-11-16T20:01:50.619Z,2.40
2022-11-16T20:04:18.344Z,2.37
2022-11-16T20:06:51.350Z,1.80
2022-11-16T20:09:20.378Z,1.10
2022-11-16T20:11:48.056Z,1.20
2022-11-16T20:14:15.817Z,1.10
2022-11-16T20:16:47.248Z,1.20
2022-11-16T20:19:16.080Z,1.17
2022-11-16T20:21:47.103Z,0.90
2022-11-16T20:24:16.242Z,0.97
2022-11-16T20:26:52.745Z,0.90
2022-11-16T20:29:20.562Z,0.90
2022-11-16T20:31:48.671Z,0.80
2022-11-16T20:34:17.300Z,1.17
2022-11-16T20:36:48.861Z,1.10
2022-11-16T20:39:17.522Z,1.00
2022-11-16T20:41:45.360Z,1.00
2022-11-16T20:44:16.561Z,1.23
2022-11-16T20:46:47.388Z,1.53
2022-11-16T20:49:15.139Z,1.60
2022-11-16T20:51:43.057Z,1.30
2022-11-16T20:54:10.790Z,1.13
2022-11-16T20:56:38.696Z,0.90
2022-11-16T20:59:06.577Z,0.90
2022-11-16T21:01:34.571Z,1.00
2022-11-16T21:04:04.575Z,1.00
2022-11-16T21:06:32.985Z,1.00
2022-11-16T21:09:00.959Z,0.90
2022-11-16T21:11:32.529Z,0.87
2022-11-16T21:14:18.739Z,0.90
2022-11-16T21:16:46.493Z,0.87
2022-11-16T21:19:14.166Z,1.10
2022-11-16T21:21:42.649Z,1.00
2022-11-16T21:24:10.676Z,0.93
2022-11-16T21:26:38.768Z,0.80
2022-11-16T21:29:06.929Z,0.73
2022-11-16T21:31:35.797Z,0.80
2022-11-16T21:34:03.625Z,0.73
2022-11-16T21:36:32.213Z,0.60
2022-11-16T21:39:00.141Z,0.70
2022-11-16T21:41:27.848Z,0.90
2022-11-16T21:43:56.153Z,0.83
2022-11-16T21:46:27.938Z,1.00
2022-11-16T21:48:56.951Z,0.70
2022-11-16T21:51:26.324Z,0.70
2022-11-16T21:53:53.831Z,0.60
2022-11-16T21:56:23.195Z,0.70
2022-11-16T21:58:52.926Z,0.70
2022-11-16T22:01:20.861Z,0.60
2022-11-16T22:04:08.210Z,0.93
2022-11-16T22:06:54.463Z,0.67
2022-11-16T22:09:22.054Z,0.70
2022-11-16T22:11:49.333Z,0.80
2022-11-16T22:14:16.700Z,0.90
2022-11-16T22:16:44.066Z,0.87
2022-11-16T22:19:11.439Z,0.60
2022-11-16T22:21:38.755Z,0.63
2022-11-16T22:24:06.250Z,0.53
2022-11-16T22:26:33.589Z,0.87
2022-11-16T22:29:00.928Z,0.70
2022-11-16T22:31:28.338Z,0.60
2022-11-16T22:33:55.649Z,0.77
2022-11-16T22:36:22.955Z,0.70
2022-11-16T22:38:54.056Z,0.50
2022-11-16T22:41:21.327Z,0.80
2022-11-16T22:43:48.584Z,1.00
2022-11-16T22:46:15.909Z,0.80
2022-11-16T22:48:44.190Z,0.80
2022-11-16T22:51:22.386Z,0.80
2022-11-16T22:54:00.352Z,0.70
2022-11-16T22:56:28.171Z,0.70
2022-11-16T22:58:55.635Z,0.77
2022-11-16T23:01:23.296Z,0.70
2022-11-16T23:03:50.994Z,0.70
2022-11-16T23:06:18.429Z,0.70
2022-11-16T23:08:45.885Z,0.63
2022-11-16T23:11:33.573Z,0.77
2022-11-16T23:14:19.613Z,0.70
2022-11-16T23:16:46.971Z,1.07
2022-11-16T23:19:34.937Z,1.00
2022-11-16T23:22:21.264Z,1.03
2022-11-16T23:25:07.170Z,0.80
2022-11-16T23:27:40.320Z,0.87
2022-11-16T23:30:12.388Z,0.80
2022-11-16T23:32:40.600Z,0.60
2022-11-16T23:35:08.071Z,0.60
2022-11-16T23:37:35.550Z,0.50
2022-11-16T23:40:02.873Z,0.60
2022-11-16T23:42:51.069Z,0.63
2022-11-16T23:45:18.627Z,0.50
2022-11-16T23:47:45.941Z,0.60
2022-11-16T23:50:13.256Z,0.60
2022-11-16T23:52:40.553Z,0.60
2022-11-16T23:55:08.083Z,0.53
2022-11-16T23:57:35.414Z,0.60
